createdAt,value
2022-12-11T00:02:16.489Z,10.20
2022-12-11T00:05:01.845Z,9.90
2022-12-11T00:07:47.489Z,9.80
2022-12-11T00:10:36.227Z,9.50
2022-12-11T00:13:23.284Z,9.40
2022-12-11T00:16:09.237Z,9.10
2022-12-11T00:18:55.287Z,9.00
2022-12-11T00:21:40.974Z,9.00
2022-12-11T00:24:26.604Z,9.00
2022-12-11T00:27:12.270Z,9.00
2022-12-11T00:29:57.946Z,8.90
2022-12-11T00:32:44.382Z,8.70
2022-12-11T00:35:29.735Z,8.60
2022-12-11T00:38:20.607Z,8.60
2022-12-11T00:41:06.436Z,8.50
2022-12-11T00:43:52.154Z,8.50
2022-12-11T00:46:38.927Z,8.50
2022-12-11T00:49:24.390Z,8.50
2022-12-11T00:52:10.848Z,8.50
2022-12-11T00:54:56.307Z,8.50
2022-12-11T00:57:41.866Z,8.40
2022-12-11T01:00:27.379Z,8.20
2022-12-11T01:03:14.905Z,8.20
2022-12-11T01:06:00.338Z,8.10
2022-12-11T01:08:46.379Z,8.00
2022-12-11T01:11:32.253Z,7.90
2022-12-11T01:14:17.634Z,7.90
2022-12-11T01:17:03.140Z,7.90
2022-12-11T01:19:48.591Z,7.90
2022-12-11T01:22:34.174Z,7.80
2022-12-11T01:25:20.349Z,7.80
2022-12-11T01:28:07.079Z,7.80
2022-12-11T01:30:52.566Z,7.80
2022-12-11T01:33:38.814Z,7.70
2022-12-11T01:36:24.653Z,7.70
2022-12-11T01:39:10.124Z,7.60
2022-12-11T01:42:00.964Z,7.70
2022-12-11T01:44:46.543Z,7.50
2022-12-11T01:47:32.122Z,7.40
2022-12-11T01:50:19.188Z,7.40
2022-12-11T01:53:08.498Z,7.40
2022-12-11T01:55:56.331Z,7.40
2022-12-11T01:58:56.417Z,7.40
2022-12-11T02:01:47.370Z,7.50
2022-12-11T02:04:39.043Z,7.70
2022-12-11T02:07:24.827Z,7.60
2022-12-11T02:10:12.159Z,7.50
2022-12-11T02:13:05.057Z,7.50
2022-12-11T02:16:06.117Z,7.50
2022-12-11T02:19:02.829Z,7.40
2022-12-11T02:21:53.130Z,7.30
2022-12-11T02:24:57.998Z,7.50
2022-12-11T02:27:56.553Z,7.50
2022-12-11T02:30:44.070Z,7.50
2022-12-11T02:34:13.381Z,7.50
2022-12-11T02:37:03.897Z,7.50
2022-12-11T02:39:53.137Z,7.30
2022-12-11T02:42:41.869Z,7.30
2022-12-11T02:45:28.768Z,7.30
2022-12-11T02:48:16.748Z,7.30
2022-12-11T02:51:04.307Z,7.30
2022-12-11T02:53:54.580Z,7.30
2022-12-11T02:56:52.156Z,7.30
2022-12-11T02:59:40.761Z,7.10
2022-12-11T03:02:26.619Z,7.00
2022-12-11T03:05:13.668Z,6.90
2022-12-11T03:07:59.201Z,6.90
2022-12-11T03:10:45.959Z,7.00
2022-12-11T03:13:31.700Z,7.10
2022-12-11T03:16:29.623Z,7.20
2022-12-11T03:19:27.924Z,7.00
2022-12-11T03:22:22.792Z,7.10
2022-12-11T03:25:20.622Z,7.10
2022-12-11T03:28:13.899Z,7.20
2022-12-11T03:31:06.987Z,7.20
2022-12-11T03:33:57.565Z,7.10
2022-12-11T03:36:47.336Z,6.90
2022-12-11T03:39:38.747Z,7.10
2022-12-11T03:42:26.791Z,7.10
2022-12-11T03:45:14.329Z,6.80
2022-12-11T03:48:01.441Z,6.80
2022-12-11T03:50:49.061Z,6.90
2022-12-11T03:53:36.535Z,6.90
2022-12-11T03:56:24.075Z,7.00
2022-12-11T03:59:09.797Z,7.00
2022-12-11T04:01:55.490Z,7.00
2022-12-11T04:04:42.002Z,7.00
2022-12-11T04:07:28.517Z,7.00
2022-12-11T04:10:14.053Z,6.90
2022-12-11T04:12:59.583Z,6.90
2022-12-11T04:15:45.032Z,6.80
2022-12-11T04:18:49.107Z,6.90
2022-12-11T04:21:53.081Z,6.90
2022-12-11T04:24:38.950Z,6.80
2022-12-11T04:27:47.348Z,6.80
2022-12-11T04:30:34.439Z,7.00
2022-12-11T04:33:20.285Z,7.70
2022-12-11T04:36:06.094Z,8.30
2022-12-11T04:38:51.694Z,8.90
2022-12-11T04:41:38.940Z,9.50
2022-12-11T04:44:24.539Z,9.90
2022-12-11T04:47:10.194Z,10.20
2022-12-11T04:49:55.957Z,10.40
2022-12-11T04:52:42.452Z,10.70
2022-12-11T04:55:28.338Z,10.90
2022-12-11T04:58:13.906Z,11.10
2022-12-11T05:00:59.693Z,11.30
2022-12-11T05:03:46.230Z,12.60
2022-12-11T05:06:31.867Z,11.50
2022-12-11T05:09:17.809Z,11.60
2022-12-11T05:12:03.856Z,11.60
2022-12-11T05:14:53.086Z,11.70
2022-12-11T05:17:38.610Z,11.80
2022-12-11T05:20:24.274Z,11.90
2022-12-11T05:23:09.648Z,12.00
2022-12-11T05:25:57.524Z,12.00
2022-12-11T05:28:43.914Z,12.00
2022-12-11T05:31:29.463Z,12.00
2022-12-11T05:34:15.973Z,12.00
2022-12-11T05:37:02.271Z,12.00
2022-12-11T05:39:47.600Z,12.10
2022-12-11T05:42:34.290Z,12.20
2022-12-11T05:45:19.923Z,12.20
2022-12-11T05:48:06.011Z,12.30
2022-12-11T05:50:59.879Z,12.30
2022-12-11T05:53:47.551Z,12.30
2022-12-11T05:56:34.935Z,12.30
2022-12-11T05:59:20.488Z,12.30
2022-12-11T06:02:06.543Z,12.40
2022-12-11T06:04:52.070Z,12.40
2022-12-11T06:07:37.753Z,12.40
2022-12-11T06:10:23.677Z,12.40
2022-12-11T06:13:09.435Z,12.50
2022-12-11T06:15:55.110Z,12.50
2022-12-11T06:18:43.322Z,12.50
2022-12-11T06:21:33.585Z,12.50
2022-12-11T06:24:19.067Z,12.50
2022-12-11T06:27:04.820Z,12.60
2022-12-11T06:29:50.363Z,12.60
2022-12-11T06:32:36.095Z,12.60
2022-12-11T06:35:21.371Z,12.60
2022-12-11T06:38:06.883Z,12.60
2022-12-11T06:41:00.237Z,12.60
2022-12-11T06:43:46.029Z,12.70
2022-12-11T06:46:31.702Z,12.70
2022-12-11T06:49:17.124Z,12.70
2022-12-11T06:52:02.775Z,12.70
2022-12-11T06:54:48.895Z,12.70
2022-12-11T06:57:34.768Z,12.80
2022-12-11T07:00:20.566Z,12.80
2022-12-11T07:03:06.346Z,12.80
2022-12-11T07:05:52.224Z,12.80
2022-12-11T07:08:37.740Z,12.80
2022-12-11T07:11:23.564Z,12.90
2022-12-11T07:14:09.464Z,12.90
2022-12-11T07:16:54.987Z,12.90
2022-12-11T07:19:40.898Z,12.90
2022-12-11T07:22:26.291Z,12.90
2022-12-11T07:25:11.929Z,12.90
2022-12-11T07:27:57.748Z,12.90
2022-12-11T07:30:43.676Z,13.00
2022-12-11T07:33:29.329Z,13.00
2022-12-11T07:36:16.152Z,13.00
2022-12-11T07:39:02.111Z,13.00
2022-12-11T07:41:47.633Z,13.10
2022-12-11T07:44:35.582Z,13.10
2022-12-11T07:47:21.087Z,13.20
2022-12-11T07:50:06.706Z,13.30
2022-12-11T07:52:52.681Z,13.40
2022-12-11T07:55:38.478Z,13.60
2022-12-11T07:58:23.855Z,13.70
2022-12-11T08:01:15.998Z,13.80
2022-12-11T08:04:01.803Z,13.90
2022-12-11T08:06:47.795Z,14.10
2022-12-11T08:09:33.558Z,14.20
2022-12-11T08:12:19.337Z,14.30
2022-12-11T08:15:05.319Z,14.40
2022-12-11T08:17:50.942Z,14.50
2022-12-11T08:20:38.938Z,14.60
2022-12-11T08:23:24.261Z,14.60
2022-12-11T08:26:13.952Z,14.70
2022-12-11T08:29:00.647Z,14.70
2022-12-11T08:31:46.430Z,14.70
2022-12-11T08:34:32.407Z,14.70
2022-12-11T08:37:18.225Z,14.70
2022-12-11T08:40:04.102Z,14.60
2022-12-11T08:42:50.002Z,14.60
2022-12-11T08:45:35.575Z,14.70
2022-12-11T08:48:21.063Z,14.70
2022-12-11T08:51:10.712Z,14.70
2022-12-11T08:54:01.095Z,14.70
2022-12-11T08:56:46.597Z,14.70
2022-12-11T08:59:32.152Z,14.70
2022-12-11T09:02:18.003Z,14.70
2022-12-11T09:05:07.294Z,14.70
2022-12-11T09:07:52.836Z,14.70
2022-12-11T09:10:38.315Z,14.70
2022-12-11T09:13:23.672Z,14.70
2022-12-11T09:16:13.884Z,14.60
2022-12-11T09:19:00.519Z,14.60
2022-12-11T09:21:46.419Z,14.70
2022-12-11T09:24:32.317Z,14.70
2022-12-11T09:27:19.869Z,14.70
2022-12-11T09:30:06.530Z,14.70
2022-12-11T09:32:53.277Z,14.70
2022-12-11T09:35:39.509Z,14.70
2022-12-11T09:38:25.314Z,14.70
2022-12-11T09:41:23.467Z,14.70
2022-12-11T09:44:36.812Z,14.70
2022-12-11T09:47:36.603Z,14.60
2022-12-11T09:50:28.872Z,14.70
2022-12-11T09:53:28.687Z,14.70
2022-12-11T09:56:22.166Z,14.70
2022-12-11T09:59:25.902Z,14.70
2022-12-11T10:02:36.400Z,14.80
2022-12-11T10:05:41.656Z,14.80
2022-12-11T10:09:08.679Z,14.80
2022-12-11T10:12:12.808Z,14.80
2022-12-11T10:15:16.590Z,14.80
2022-12-11T10:18:05.511Z,14.80
2022-12-11T10:20:53.124Z,14.80
2022-12-11T10:23:56.115Z,14.80
2022-12-11T10:26:42.107Z,14.80
2022-12-11T10:29:28.319Z,14.80
2022-12-11T10:32:23.506Z,14.80
2022-12-11T10:35:36.959Z,14.70
2022-12-11T10:38:28.444Z,14.70
2022-12-11T10:41:24.619Z,14.70
2022-12-11T10:44:25.387Z,14.70
2022-12-11T10:47:17.851Z,14.70
2022-12-11T10:50:04.511Z,14.70
2022-12-11T10:52:50.883Z,14.70
2022-12-11T10:55:47.155Z,14.70
2022-12-11T10:58:35.629Z,14.70
2022-12-11T11:01:24.543Z,14.70
2022-12-11T11:04:23.968Z,14.70
2022-12-11T11:07:26.570Z,14.70
2022-12-11T11:10:12.412Z,14.70
2022-12-11T11:13:02.304Z,14.70
2022-12-11T11:15:48.190Z,14.70
2022-12-11T11:18:34.864Z,14.70
2022-12-11T11:21:24.042Z,14.70
2022-12-11T11:24:28.655Z,14.70
2022-12-11T11:27:27.343Z,14.60
2022-12-11T11:30:25.551Z,14.70
2022-12-11T11:33:18.175Z,14.70
2022-12-11T11:36:05.675Z,14.70
2022-12-11T11:39:13.360Z,14.60
2022-12-11T11:42:13.660Z,14.60
2022-12-11T11:45:20.646Z,14.60
2022-12-11T11:48:30.767Z,14.60
2022-12-11T11:51:32.164Z,14.60
2022-12-11T11:54:39.814Z,14.60
2022-12-11T11:58:00.910Z,14.70
2022-12-11T12:00:46.319Z,14.70
2022-12-11T12:03:32.211Z,14.70
2022-12-11T12:06:50.905Z,14.70
2022-12-11T12:09:40.028Z,14.70
2022-12-11T12:12:49.474Z,14.70
2022-12-11T12:16:50.421Z,14.70
2022-12-11T12:19:36.085Z,14.70
2022-12-11T12:22:36.793Z,14.70
2022-12-11T12:25:44.013Z,14.70
2022-12-11T12:28:41.784Z,14.70
2022-12-11T12:31:40.877Z,14.60
2022-12-11T12:34:50.677Z,14.60
2022-12-11T12:38:16.406Z,14.70
2022-12-11T12:41:28.570Z,14.70
2022-12-11T12:44:23.992Z,14.80
2022-12-11T12:47:13.649Z,14.90
2022-12-11T12:50:01.672Z,15.00
2022-12-11T12:52:48.650Z,15.10
2022-12-11T12:55:35.921Z,15.20
2022-12-11T12:58:39.664Z,15.30
2022-12-11T13:01:27.568Z,15.40
2022-12-11T13:04:55.510Z,15.50
2022-12-11T13:07:59.517Z,15.60
2022-12-11T13:10:45.118Z,15.70
2022-12-11T13:13:48.977Z,15.80
2022-12-11T13:16:39.887Z,15.90
2022-12-11T13:19:25.537Z,16.00
2022-12-11T13:22:14.380Z,16.10
2022-12-11T13:25:04.882Z,16.10
2022-12-11T13:27:50.567Z,16.10
2022-12-11T13:30:37.071Z,16.20
2022-12-11T13:33:23.230Z,16.20
2022-12-11T13:36:15.739Z,16.30
2022-12-11T13:39:19.175Z,16.30
2022-12-11T13:42:07.627Z,16.20
2022-12-11T13:44:53.800Z,16.20
2022-12-11T13:47:41.071Z,16.20
2022-12-11T13:50:31.798Z,16.20
2022-12-11T13:53:19.380Z,16.20
2022-12-11T13:56:07.781Z,16.20
2022-12-11T13:58:54.057Z,16.20
2022-12-11T14:01:40.007Z,16.10
2022-12-11T14:04:28.172Z,16.10
2022-12-11T14:07:20.286Z,16.10
2022-12-11T14:10:18.069Z,16.10
2022-12-11T14:13:07.037Z,16.10
2022-12-11T14:15:53.657Z,16.00
2022-12-11T14:18:39.405Z,16.00
2022-12-11T14:21:25.966Z,16.00
2022-12-11T14:24:14.199Z,16.00
2022-12-11T14:27:00.142Z,16.00
2022-12-11T14:29:46.170Z,16.00
2022-12-11T14:32:36.887Z,15.90
2022-12-11T14:35:38.901Z,15.90
2022-12-11T14:38:32.200Z,15.90
2022-12-11T14:41:24.173Z,15.90
2022-12-11T14:44:15.916Z,15.90
2022-12-11T14:47:06.708Z,15.80
2022-12-11T14:50:05.273Z,15.80
2022-12-11T14:53:02.249Z,15.80
2022-12-11T14:55:49.913Z,15.80
2022-12-11T14:58:44.139Z,15.70
2022-12-11T15:01:32.845Z,15.70
2022-12-11T15:04:33.484Z,15.70
2022-12-11T15:07:22.007Z,15.80
2022-12-11T15:10:07.747Z,15.70
2022-12-11T15:12:54.218Z,15.70
2022-12-11T15:15:47.768Z,15.80
2022-12-11T15:18:37.439Z,15.80
2022-12-11T15:21:34.582Z,15.80
2022-12-11T15:24:49.784Z,15.80
2022-12-11T15:27:39.891Z,15.80
2022-12-11T15:30:32.128Z,15.90
2022-12-11T15:33:22.189Z,15.90
2022-12-11T15:36:24.150Z,15.90
2022-12-11T15:39:09.974Z,16.00
2022-12-11T15:41:55.373Z,16.00
2022-12-11T15:44:41.939Z,16.00
2022-12-11T15:47:29.636Z,16.00
2022-12-11T15:50:18.279Z,16.00
2022-12-11T15:53:03.796Z,16.00
2022-12-11T15:55:49.461Z,15.90
2022-12-11T15:58:35.823Z,16.00
2022-12-11T16:01:22.157Z,15.90
2022-12-11T16:04:10.617Z,15.90
2022-12-11T16:06:56.505Z,15.90
2022-12-11T16:09:42.295Z,15.80
2022-12-11T16:12:28.241Z,15.70
2022-12-11T16:15:18.753Z,15.70
2022-12-11T16:18:11.450Z,15.70
2022-12-11T16:20:56.802Z,15.70
2022-12-11T16:23:42.606Z,15.60
2022-12-11T16:26:28.335Z,15.60
2022-12-11T16:29:13.813Z,15.60
2022-12-11T16:31:59.344Z,15.60
2022-12-11T16:34:44.982Z,15.60
2022-12-11T16:37:30.683Z,15.60
2022-12-11T16:40:16.342Z,15.60
2022-12-11T16:43:03.726Z,15.70
2022-12-11T16:45:55.863Z,15.70
2022-12-11T16:48:45.164Z,15.70
2022-12-11T16:51:30.746Z,15.60
2022-12-11T16:54:17.383Z,15.70
2022-12-11T16:57:02.806Z,15.70
2022-12-11T16:59:48.536Z,15.70
2022-12-11T17:02:34.509Z,15.70
2022-12-11T17:05:20.412Z,15.70
2022-12-11T17:08:06.710Z,15.70
2022-12-11T17:10:53.063Z,15.70
2022-12-11T17:13:38.995Z,15.70
2022-12-11T17:16:26.535Z,15.70
2022-12-11T17:19:12.347Z,15.70
2022-12-11T17:21:58.993Z,15.70
2022-12-11T17:24:44.668Z,15.70
2022-12-11T17:27:30.657Z,15.70
2022-12-11T17:30:16.741Z,15.80
2022-12-11T17:33:03.142Z,15.70
2022-12-11T17:35:48.941Z,15.70
2022-12-11T17:38:34.853Z,15.80
2022-12-11T17:41:21.901Z,15.70
2022-12-11T17:44:07.457Z,15.70
2022-12-11T17:46:53.170Z,15.80
2022-12-11T17:49:40.349Z,15.80
2022-12-11T17:52:29.676Z,15.80
2022-12-11T17:55:19.471Z,15.70
2022-12-11T17:58:05.621Z,15.70
2022-12-11T18:00:54.194Z,15.70
2022-12-11T18:03:40.870Z,15.70
2022-12-11T18:06:26.966Z,15.80
2022-12-11T18:09:12.764Z,15.70
2022-12-11T18:11:59.615Z,15.70
2022-12-11T18:14:46.014Z,15.70
2022-12-11T18:17:32.544Z,15.80
2022-12-11T18:20:18.346Z,15.80
2022-12-11T18:23:04.348Z,15.80
2022-12-11T18:25:50.133Z,15.80
2022-12-11T18:28:35.663Z,15.80
2022-12-11T18:31:22.529Z,15.80
2022-12-11T18:34:08.475Z,15.80
2022-12-11T18:36:54.155Z,16.50
2022-12-11T18:39:40.840Z,15.80
2022-12-11T18:42:34.620Z,15.80
2022-12-11T18:45:20.626Z,15.80
2022-12-11T18:48:06.592Z,15.80
2022-12-11T18:50:52.695Z,15.80
2022-12-11T18:53:40.297Z,15.80
2022-12-11T18:56:25.908Z,15.80
2022-12-11T18:59:15.293Z,15.80
2022-12-11T19:02:01.276Z,15.80
2022-12-11T19:04:47.460Z,15.80
2022-12-11T19:07:33.111Z,15.80
2022-12-11T19:10:18.686Z,15.90
2022-12-11T19:13:04.185Z,15.80
2022-12-11T19:15:49.966Z,15.90
2022-12-11T19:18:35.726Z,15.90
2022-12-11T19:21:21.529Z,15.90
2022-12-11T19:24:08.969Z,15.90
2022-12-11T19:26:54.530Z,15.90
2022-12-11T19:29:39.965Z,15.90
2022-12-11T19:32:26.315Z,15.90
2022-12-11T19:35:13.880Z,15.90
2022-12-11T19:38:00.196Z,15.90
2022-12-11T19:40:45.728Z,15.90
2022-12-11T19:43:31.294Z,15.90
2022-12-11T19:46:17.775Z,15.90
2022-12-11T19:49:04.010Z,15.90
2022-12-11T19:51:49.849Z,15.90
2022-12-11T19:54:36.831Z,15.90
2022-12-11T19:57:22.503Z,15.90
2022-12-11T20:00:08.689Z,15.90
2022-12-11T20:02:57.565Z,15.90
2022-12-11T20:05:42.966Z,15.90
2022-12-11T20:08:44.184Z,15.90
2022-12-11T20:11:32.564Z,15.40
2022-12-11T20:14:23.890Z,16.00
2022-12-11T20:17:12.335Z,16.00
2022-12-11T20:19:59.492Z,16.00
2022-12-11T20:22:45.051Z,16.00
2022-12-11T20:25:30.399Z,16.00
2022-12-11T20:28:16.304Z,16.00
2022-12-11T20:31:14.848Z,15.90
2022-12-11T20:34:04.932Z,15.90
2022-12-11T20:36:52.420Z,15.90
2022-12-11T20:39:37.846Z,15.90
2022-12-11T20:42:23.623Z,15.90
2022-12-11T20:45:09.978Z,15.90
2022-12-11T20:47:55.524Z,15.90
2022-12-11T20:50:41.303Z,15.90
2022-12-11T20:53:28.510Z,15.90
2022-12-11T20:56:17.875Z,15.90
2022-12-11T20:59:03.435Z,16.00
2022-12-11T21:01:49.559Z,16.00
2022-12-11T21:04:39.646Z,16.00
2022-12-11T21:07:25.785Z,16.00
2022-12-11T21:10:13.358Z,16.00
2022-12-11T21:12:59.181Z,16.00
2022-12-11T21:15:44.823Z,16.00
2022-12-11T21:18:30.574Z,16.00
2022-12-11T21:21:16.981Z,16.00
2022-12-11T21:24:03.457Z,16.00
2022-12-11T21:26:50.110Z,16.00
2022-12-11T21:29:35.790Z,16.00
2022-12-11T21:32:21.454Z,16.00
2022-12-11T21:35:07.218Z,16.00
2022-12-11T21:37:52.900Z,16.00
2022-12-11T21:40:38.435Z,16.00
2022-12-11T21:43:24.861Z,16.00
2022-12-11T21:46:18.499Z,16.00
2022-12-11T21:49:05.797Z,16.00
2022-12-11T21:51:51.256Z,16.00
2022-12-11T21:54:37.254Z,16.10
2022-12-11T21:57:26.258Z,16.00
2022-12-11T22:00:12.843Z,16.10
2022-12-11T22:02:58.423Z,16.10
2022-12-11T22:05:43.886Z,16.00
2022-12-11T22:08:29.562Z,16.00
2022-12-11T22:11:28.094Z,16.00
2022-12-11T22:14:16.338Z,15.90
2022-12-11T22:17:02.057Z,15.90
2022-12-11T22:19:47.775Z,15.80
2022-12-11T22:22:33.706Z,15.80
2022-12-11T22:25:19.489Z,15.70
2022-12-11T22:28:05.045Z,15.70
2022-12-11T22:30:50.745Z,15.60
2022-12-11T22:33:36.759Z,15.60
2022-12-11T22:36:24.372Z,15.60
2022-12-11T22:39:10.241Z,15.60
2022-12-11T22:41:55.908Z,15.50
2022-12-11T22:44:41.938Z,15.50
2022-12-11T22:47:27.517Z,15.50
2022-12-11T22:50:14.482Z,15.40
2022-12-11T22:53:00.170Z,15.40
2022-12-11T22:55:46.001Z,15.40
2022-12-11T22:58:31.603Z,15.40
2022-12-11T23:01:21.218Z,15.40
2022-12-11T23:04:06.734Z,15.40
2022-12-11T23:06:52.452Z,15.40
2022-12-11T23:09:38.004Z,15.30
2022-12-11T23:12:26.154Z,15.30
2022-12-11T23:15:12.329Z,15.30
2022-12-11T23:17:57.946Z,15.30
2022-12-11T23:20:43.671Z,15.30
2022-12-11T23:23:29.527Z,15.20
2022-12-11T23:26:16.513Z,15.20
2022-12-11T23:29:03.757Z,15.20
2022-12-11T23:31:49.358Z,15.20
2022-12-11T23:34:34.870Z,15.20
2022-12-11T23:37:20.289Z,15.10
2022-12-11T23:40:06.514Z,15.10
2022-12-11T23:42:52.371Z,15.10
2022-12-11T23:45:38.013Z,15.10
2022-12-11T23:48:23.775Z,15.10
2022-12-11T23:51:11.361Z,15.10
2022-12-11T23:53:57.277Z,15.00
2022-12-11T23:56:42.719Z,15.00
2022-12-11T23:59:28.341Z,15.00
